Pagina principale
METAR-TAF:

METAR-TAF

Aeroporti :

Aeroporto Internazionale di Teheran-Mehrabad

Teheran, Iran

latitudine: 35-41N, longitudine: 051-21E, altezza: 1204 m

Osservazione

Il bollettino è stato emesso 29 minuti fa, alle 19:00 UTC
Vento 8 kt da sud-est
Temperature 32°C
Umidità 12%
Pressione 1012 hPa
Visibilità 10 km o più
nessuna nube inferiore a 1500 m e nessun cumulonembo

METAR: OIII 141900Z 13008KT CAVOK 32/M01 Q1011 A2987

Ora: 23:59 (19:29 UTC)

Previsione

Il bollettino è stato emesso 1 ora e 59 minuti fa, alle 17:30 UTC
Previsione valida dal 14 alle 18 UTC al 15 alle 24 UTC
Vento 8 kt da nord/nord-ovest
Visibilità 10 km o più
nessuna nube inferiore a 1500 m e nessun cumulonembo
Evoluzione graduale
dal 15 alle 06 UTC al 15 alle 08 UTC
Vento 10 kt da sud-est
Evoluzione graduale
dal 15 alle 18 UTC al 15 alle 20 UTC
Vento 6 kt da nord/nord-ovest

TAF: OIII 141730Z 1418/1524 33004MPS CAVOK BECMG 1506/1508 14005MPS BECMG 1518/1520 33003MPS

Osservazioni e previsioni meteorologiche di più di 4000 aeroporti (messaggi METAR e TAF).

Le stazioni disponibili sono rappresentate dai dischi gialli e rossi sulla carta.

Puntare il mouse per vedere il nome della stazione.

Clicca sopra per visualizzare le osservazioni e previsioni meteorologiche.

Per cambiare la mappa : fare clic sui pulsanti verdi con una croce nera per ingrandire, il pulsante verde con un trattino per diminuire, o sulla freccia verde per le mappe adiacenti.


METAR-TAF: